Station Historical Data
Daily Summary for July 12, 2017 Units:  Both    English   Metric
« Previous Day
Next Day »
Daily Weekly Monthly Yearly Custom
  High: Low: Average:
Temperature: 79.0 °F /  26.1 °C 68.2 °F /  20.1 °C 73.2 °F /  22.9 °C
Dew Point: 71.9 °F /  22.2 °C 65.2 °F /  18.4 °C 68.7 °F /  20.4 °C
Humidity: 92% 77% 86%
Wind Speed: 12.0mph /  19.3km/h - 3.2mph /  5.1km/h
Wind Gust: 17.0mph /  27.4km/h - -
Wind- - SW
Pressure: 29.97 in /  1014.8 hPa 29.87 in /  1011.4 hPa -
Precipitation: 0.00 in /  0 mm    
Historical Graphs
 
 
Tabular Data for July 12, 2017
Time Temperature Dew Point Pressure Wind Wind Speed Wind Gust Humidity Rainfall Rate (Hourly)
00:04 70.4 °F /  21.3 °C 65.7 °F /  18.7 °C 29.91in /  1012.8hPa Calm     85% 0.00in /  0mm
00:09 70.4 °F /  21.3 °C 65.7 °F /  18.7 °C 29.91in /  1012.8hPa Calm     85% 0.00in /  0mm
00:14 70.3 °F /  21.3 °C 65.6 °F /  18.7 °C 29.91in /  1012.8hPa Calm     85% 0.00in /  0mm
00:19 70.4 °F /  21.3 °C 65.7 °F /  18.7 °C 29.90in /  1012.4hPa Calm     85% 0.00in /  0mm
00:24 70.3 °F /  21.3 °C 65.6 °F /  18.7 °C 29.90in /  1012.4hPa Calm     85% 0.00in /  0mm
00:29 70.2 °F /  21.2 °C 65.8 °F /  18.8 °C 29.91in /  1012.8hPa Calm     86% 0.00in /  0mm
00:34 70.2 °F /  21.2 °C 65.8 °F /  18.8 °C 29.91in /  1012.8hPa Calm     86% 0.00in /  0mm
00:39 70.2 °F /  21.2 °C 65.8 °F /  18.8 °C 29.91in /  1012.8hPa Calm     86% 0.00in /  0mm
00:44 70.3 °F /  21.3 °C 65.9 °F /  18.8 °C 29.91in /  1012.8hPa Calm     86% 0.00in /  0mm
00:49 70.3 °F /  21.3 °C 66.2 °F /  19 °C 29.91in /  1012.8hPa Calm     87% 0.00in /  0mm
00:54 70.5 °F /  21.4 °C 66.4 °F /  19.1 °C 29.91in /  1012.8hPa Calm     87% 0.00in /  0mm
00:59 70.5 °F /  21.4 °C 66.4 °F /  19.1 °C 29.92in /  1013.1hPa Calm     87% 0.00in /  0mm
01:04 70.5 °F /  21.4 °C 66.4 °F /  19.1 °C 29.92in /  1013.1hPa Calm     87% 0.00in /  0mm
01:09 70.4 °F /  21.3 °C 66.3 °F /  19.1 °C 29.92in /  1013.1hPa Calm     87% 0.00in /  0mm
01:14 70.4 °F /  21.3 °C 66.3 °F /  19.1 °C 29.92in /  1013.1hPa Calm     87% 0.00in /  0mm
01:19 70.2 °F /  21.2 °C 66.1 °F /  18.9 °C 29.92in /  1013.1hPa Calm     87% 0.00in /  0mm
01:24 70.0 °F /  21.1 °C 66.0 °F /  18.9 °C 29.91in /  1012.8hPa Calm     87% 0.00in /  0mm
01:29 69.9 °F /  21.1 °C 65.9 °F /  18.8 °C 29.92in /  1013.1hPa Calm     87% 0.00in /  0mm
01:34 69.9 °F /  21.1 °C 65.9 °F /  18.8 °C 29.92in /  1013.1hPa Calm     87% 0.00in /  0mm
01:39 69.9 °F /  21.1 °C 65.9 °F /  18.8 °C 29.92in /  1013.1hPa Calm     87% 0.00in /  0mm
01:44 69.8 °F /  21 °C 65.8 °F /  18.8 °C 29.92in /  1013.1hPa Calm     87% 0.00in /  0mm
01:49 69.7 °F /  20.9 °C 65.7 °F /  18.7 °C 29.92in /  1013.1hPa Calm     87% 0.00in /  0mm
01:54 69.4 °F /  20.8 °C 65.4 °F /  18.6 °C 29.92in /  1013.1hPa Calm     87% 0.00in /  0mm
01:59 69.2 °F /  20.7 °C 65.2 °F /  18.4 °C 29.92in /  1013.1hPa Calm     87% 0.00in /  0mm
02:04 69.1 °F /  20.6 °C 65.4 °F /  18.6 °C 29.92in /  1013.1hPa Calm     88% 0.00in /  0mm
02:09 69.1 °F /  20.6 °C 65.4 °F /  18.6 °C 29.91in /  1012.8hPa Calm     88% 0.00in /  0mm
02:14 69.2 °F /  20.7 °C 65.5 °F /  18.6 °C 29.91in /  1012.8hPa Calm     88% 0.00in /  0mm
02:19 69.2 °F /  20.7 °C 65.5 °F /  18.6 °C 29.91in /  1012.8hPa Calm     88% 0.00in /  0mm
02:24 69.2 °F /  20.7 °C 65.5 °F /  18.6 °C 29.91in /  1012.8hPa Calm     88% 0.00in /  0mm
02:29 69.1 °F /  20.6 °C 65.4 °F /  18.6 °C 29.91in /  1012.8hPa Calm     88% 0.00in /  0mm
02:34 69.0 °F /  20.6 °C 65.3 °F /  18.5 °C 29.91in /  1012.8hPa Calm     88% 0.00in /  0mm
02:39 68.9 °F /  20.5 °C 65.5 °F /  18.6 °C 29.90in /  1012.4hPa Calm     89% 0.00in /  0mm
02:44 69.0 °F /  20.6 °C 65.6 °F /  18.7 °C 29.91in /  1012.8hPa Calm     89% 0.00in /  0mm
02:49 69.0 °F /  20.6 °C 65.6 °F /  18.7 °C 29.91in /  1012.8hPa Calm     89% 0.00in /  0mm
02:54 69.0 °F /  20.6 °C 65.6 °F /  18.7 °C 29.91in /  1012.8hPa Calm     89% 0.00in /  0mm
02:59 69.1 °F /  20.6 °C 65.7 °F /  18.7 °C 29.91in /  1012.8hPa Calm     89% 0.00in /  0mm
03:04 69.1 °F /  20.6 °C 65.7 °F /  18.7 °C 29.91in /  1012.8hPa Calm     89% 0.00in /  0mm
03:09 69.0 °F /  20.6 °C 65.6 °F /  18.7 °C 29.90in /  1012.4hPa Calm     89% 0.00in /  0mm
03:14 69.0 °F /  20.6 °C 65.6 °F /  18.7 °C 29.90in /  1012.4hPa Calm     89% 0.00in /  0mm
03:19 68.9 °F /  20.5 °C 65.5 °F /  18.6 °C 29.91in /  1012.8hPa Calm     89% 0.00in /  0mm
03:24 68.9 °F /  20.5 °C 65.8 °F /  18.8 °C 29.90in /  1012.4hPa Calm     90% 0.00in /  0mm
03:29 68.7 °F /  20.4 °C 65.6 °F /  18.7 °C 29.91in /  1012.8hPa Calm     90% 0.00in /  0mm
03:34 68.6 °F /  20.3 °C 65.5 °F /  18.6 °C 29.91in /  1012.8hPa Calm     90% 0.00in /  0mm
03:39 68.6 °F /  20.3 °C 65.5 °F /  18.6 °C 29.91in /  1012.8hPa Calm     90% 0.00in /  0mm
03:44 68.3 °F /  20.2 °C 65.3 °F /  18.5 °C 29.92in /  1013.1hPa Calm     90% 0.00in /  0mm
03:49 68.2 °F /  20.1 °C 65.2 °F /  18.4 °C 29.92in /  1013.1hPa Calm     90% 0.00in /  0mm
03:54 68.2 °F /  20.1 °C 65.2 °F /  18.4 °C 29.92in /  1013.1hPa Calm     90% 0.00in /  0mm
03:59 68.2 °F /  20.1 °C 65.5 °F /  18.6 °C 29.92in /  1013.1hPa Calm     91% 0.00in /  0mm
04:04 68.3 °F /  20.2 °C 65.6 °F /  18.7 °C 29.92in /  1013.1hPa Calm     91% 0.00in /  0mm
04:09 68.4 °F /  20.2 °C 65.7 °F /  18.7 °C 29.92in /  1013.1hPa Calm     91% 0.00in /  0mm
04:14 68.5 °F /  20.3 °C 65.8 °F /  18.8 °C 29.92in /  1013.1hPa Calm     91% 0.00in /  0mm
04:19 68.7 °F /  20.4 °C 66.0 °F /  18.9 °C 29.92in /  1013.1hPa Calm     91% 0.00in /  0mm
04:24 68.8 °F /  20.4 °C 66.1 °F /  18.9 °C 29.92in /  1013.1hPa Calm     91% 0.00in /  0mm
04:29 68.8 °F /  20.4 °C 66.1 °F /  18.9 °C 29.91in /  1012.8hPa Calm     91% 0.00in /  0mm
04:34 68.8 °F /  20.4 °C 66.1 °F /  18.9 °C 29.91in /  1012.8hPa Calm     91% 0.00in /  0mm
04:39 68.8 °F /  20.4 °C 66.1 °F /  18.9 °C 29.91in /  1012.8hPa Calm     91% 0.00in /  0mm
04:44 68.8 °F /  20.4 °C 66.1 °F /  18.9 °C 29.91in /  1012.8hPa Calm     91% 0.00in /  0mm
04:49 68.8 °F /  20.4 °C 66.1 °F /  18.9 °C 29.91in /  1012.8hPa Calm     91% 0.00in /  0mm
04:54 69.0 °F /  20.6 °C 66.3 °F /  19.1 °C 29.91in /  1012.8hPa Calm     91% 0.00in /  0mm
04:59 69.0 °F /  20.6 °C 66.3 °F /  19.1 °C 29.91in /  1012.8hPa Calm     91% 0.00in /  0mm
05:04 69.2 °F /  20.7 °C 66.5 °F /  19.2 °C 29.91in /  1012.8hPa Calm     91% 0.00in /  0mm
05:09 69.2 °F /  20.7 °C 66.5 °F /  19.2 °C 29.92in /  1013.1hPa Calm     91% 0.00in /  0mm
05:14 69.1 °F /  20.6 °C 66.4 °F /  19.1 °C 29.92in /  1013.1hPa Calm     91% 0.00in /  0mm
05:19 69.0 °F /  20.6 °C 66.3 °F /  19.1 °C 29.92in /  1013.1hPa Calm     91% 0.00in /  0mm
05:24 68.9 °F /  20.5 °C 66.2 °F /  19 °C 29.92in /  1013.1hPa Calm     91% 0.00in /  0mm
05:29 68.9 °F /  20.5 °C 66.2 °F /  19 °C 29.93in /  1013.4hPa Calm     91% 0.00in /  0mm
05:34 68.8 °F /  20.4 °C 66.1 °F /  18.9 °C 29.93in /  1013.4hPa Calm     91% 0.00in /  0mm
05:39 68.8 °F /  20.4 °C 66.1 °F /  18.9 °C 29.93in /  1013.4hPa Calm     91% 0.00in /  0mm
05:44 69.0 °F /  20.6 °C 66.3 °F /  19.1 °C 29.92in /  1013.1hPa Calm     91% 0.00in /  0mm
05:49 69.2 °F /  20.7 °C 66.5 °F /  19.2 °C 29.92in /  1013.1hPa Calm     91% 0.00in /  0mm
05:54 69.3 °F /  20.7 °C 66.6 °F /  19.2 °C 29.92in /  1013.1hPa Calm     91% 0.00in /  0mm
05:59 69.6 °F /  20.9 °C 66.9 °F /  19.4 °C 29.93in /  1013.4hPa Calm     91% 0.00in /  0mm
06:04 70.1 °F /  21.2 °C 67.3 °F /  19.6 °C 29.93in /  1013.4hPa Calm     91% 0.00in /  0mm
06:09 70.3 °F /  21.3 °C 67.5 °F /  19.7 °C 29.93in /  1013.4hPa Calm     91% 0.00in /  0mm
06:14 70.8 °F /  21.6 °C 68.0 °F /  20 °C 29.93in /  1013.4hPa SSW 1.0mph /  1.6km/h 3.0mph /  4.8km/h 91% 0.00in /  0mm
06:19 71.5 °F /  21.9 °C 68.7 °F /  20.4 °C 29.93in /  1013.4hPa SW 1.0mph /  1.6km/h 7.0mph /  11.3km/h 91% 0.00in /  0mm
06:24 72.2 °F /  22.3 °C 69.4 °F /  20.8 °C 29.93in /  1013.4hPa SW 3.0mph /  4.8km/h 8.0mph /  12.9km/h 91% 0.00in /  0mm
06:29 72.6 °F /  22.6 °C 69.8 °F /  21 °C 29.93in /  1013.4hPa SW 3.0mph /  4.8km/h 8.0mph /  12.9km/h 91% 0.00in /  0mm
06:34 72.8 °F /  22.7 °C 70.0 °F /  21.1 °C 29.94in /  1013.8hPa WSW 3.0mph /  4.8km/h 8.0mph /  12.9km/h 91% 0.00in /  0mm
06:39 72.9 °F /  22.7 °C 69.8 °F /  21 °C 29.94in /  1013.8hPa WSW 3.0mph /  4.8km/h 8.0mph /  12.9km/h 90% 0.00in /  0mm
06:44 73.0 °F /  22.8 °C 69.9 °F /  21.1 °C 29.94in /  1013.8hPa WSW 3.0mph /  4.8km/h 7.0mph /  11.3km/h 90% 0.00in /  0mm
06:49 73.0 °F /  22.8 °C 69.6 °F /  20.9 °C 29.94in /  1013.8hPa WSW 5.0mph /  8km/h 8.0mph /  12.9km/h 89% 0.00in /  0mm
06:54 73.0 °F /  22.8 °C 69.6 °F /  20.9 °C 29.94in /  1013.8hPa West 2.0mph /  3.2km/h 7.0mph /  11.3km/h 89% 0.00in /  0mm
06:59 73.1 °F /  22.8 °C 69.7 °F /  20.9 °C 29.93in /  1013.4hPa SW 3.0mph /  4.8km/h 10.0mph /  16.1km/h 89% 0.00in /  0mm
07:04 73.1 °F /  22.8 °C 69.7 °F /  20.9 °C 29.93in /  1013.4hPa WSW 8.0mph /  12.9km/h 9.0mph /  14.5km/h 89% 0.00in /  0mm
07:09 73.1 °F /  22.8 °C 69.7 °F /  20.9 °C 29.93in /  1013.4hPa WSW 3.0mph /  4.8km/h 8.0mph /  12.9km/h 89% 0.00in /  0mm
07:14 73.1 °F /  22.8 °C 69.7 °F /  20.9 °C 29.93in /  1013.4hPa West 1.0mph /  1.6km/h 5.0mph /  8km/h 89% 0.00in /  0mm
07:19 73.1 °F /  22.8 °C 69.7 °F /  20.9 °C 29.93in /  1013.4hPa Calm   4.0mph /  6.4km/h 89% 0.00in /  0mm
07:24 73.2 °F /  22.9 °C 69.8 °F /  21 °C 29.93in /  1013.4hPa WSW 1.0mph /  1.6km/h 4.0mph /  6.4km/h 89% 0.00in /  0mm
07:29 73.1 °F /  22.8 °C 69.7 °F /  20.9 °C 29.93in /  1013.4hPa SW 2.0mph /  3.2km/h 5.0mph /  8km/h 89% 0.00in /  0mm
07:34 73.0 °F /  22.8 °C 69.6 °F /  20.9 °C 29.93in /  1013.4hPa SW 3.0mph /  4.8km/h 11.0mph /  17.7km/h 89% 0.00in /  0mm
07:39 73.0 °F /  22.8 °C 69.6 °F /  20.9 °C 29.93in /  1013.4hPa SW 5.0mph /  8km/h 11.0mph /  17.7km/h 89% 0.00in /  0mm
07:44 73.0 °F /  22.8 °C 69.2 °F /  20.7 °C 29.93in /  1013.4hPa West 4.0mph /  6.4km/h 7.0mph /  11.3km/h 88% 0.00in /  0mm
07:49 72.8 °F /  22.7 °C 69.0 °F /  20.6 °C 29.94in /  1013.8hPa WSW 4.0mph /  6.4km/h 9.0mph /  14.5km/h 88% 0.00in /  0mm
07:54 72.7 °F /  22.6 °C 69.3 °F /  20.7 °C 29.94in /  1013.8hPa WSW 4.0mph /  6.4km/h 9.0mph /  14.5km/h 89% 0.00in /  0mm
07:59 72.5 °F /  22.5 °C 69.4 °F /  20.8 °C 29.94in /  1013.8hPa West 5.0mph /  8km/h 7.0mph /  11.3km/h 90% 0.00in /  0mm
08:04 72.4 °F /  22.4 °C 69.3 °F /  20.7 °C 29.93in /  1013.4hPa West 5.0mph /  8km/h 8.0mph /  12.9km/h 90% 0.01in /  0.25mm
08:09 72.1 °F /  22.3 °C 69.0 °F /  20.6 °C 29.94in /  1013.8hPa West 6.0mph /  9.7km/h 9.0mph /  14.5km/h 90% 0.04in /  1.02mm
08:14 71.9 °F /  22.2 °C 68.8 °F /  20.4 °C 29.94in /  1013.8hPa SW 5.0mph /  8km/h 12.0mph /  19.3km/h 90% 0.09in /  2.29mm
08:19 71.7 °F /  22.1 °C 68.9 °F /  20.5 °C 29.94in /  1013.8hPa WSW 4.0mph /  6.4km/h 12.0mph /  19.3km/h 91% 0.15in /  3.81mm
08:24 71.7 °F /  22.1 °C 68.9 °F /  20.5 °C 29.95in /  1014.1hPa West 4.0mph /  6.4km/h 8.0mph /  12.9km/h 91% 0.20in /  5.08mm
08:29 71.6 °F /  22 °C 68.8 °F /  20.4 °C 29.95in /  1014.1hPa SW 8.0mph /  12.9km/h 13.0mph /  20.9km/h 91% 0.21in /  5.33mm
08:34 71.2 °F /  21.8 °C 68.4 °F /  20.2 °C 29.95in /  1014.1hPa SW 8.0mph /  12.9km/h 14.0mph /  22.5km/h 91% 0.22in /  5.59mm
08:39 71.1 °F /  21.7 °C 68.7 °F /  20.4 °C 29.95in /  1014.1hPa WSW 3.0mph /  4.8km/h 11.0mph /  17.7km/h 92% 0.22in /  5.59mm
08:44 71.1 °F /  21.7 °C 68.7 °F /  20.4 °C 29.96in /  1014.4hPa SW 4.0mph /  6.4km/h 9.0mph /  14.5km/h 92% 0.22in /  5.59mm
08:49 71.2 °F /  21.8 °C 68.8 °F /  20.4 °C 29.95in /  1014.1hPa WSW 6.0mph /  9.7km/h 9.0mph /  14.5km/h 92% 0.22in /  5.59mm
08:54 71.2 °F /  21.8 °C 68.8 °F /  20.4 °C 29.95in /  1014.1hPa WSW 5.0mph /  8km/h 9.0mph /  14.5km/h 92% 0.22in /  5.59mm
08:59 71.2 °F /  21.8 °C 68.8 °F /  20.4 °C 29.95in /  1014.1hPa WSW 4.0mph /  6.4km/h 9.0mph /  14.5km/h 92% 0.22in /  5.59mm
09:04 71.2 °F /  21.8 °C 68.8 °F /  20.4 °C 29.96in /  1014.4hPa SW 4.0mph /  6.4km/h 9.0mph /  14.5km/h 92% 0.21in /  5.33mm
09:09 71.0 °F /  21.7 °C 68.6 °F /  20.3 °C 29.96in /  1014.4hPa WSW 5.0mph /  8km/h 12.0mph /  19.3km/h 92% 0.19in /  4.83mm
09:14 70.9 °F /  21.6 °C 68.5 °F /  20.3 °C 29.96in /  1014.4hPa WSW 6.0mph /  9.7km/h 12.0mph /  19.3km/h 92% 0.14in /  3.56mm
09:19 70.8 °F /  21.6 °C 68.4 °F /  20.2 °C 29.96in /  1014.4hPa WSW 3.0mph /  4.8km/h 8.0mph /  12.9km/h 92% 0.08in /  2.03mm
09:24 70.9 °F /  21.6 °C 68.5 °F /  20.3 °C 29.96in /  1014.4hPa West 3.0mph /  4.8km/h 6.0mph /  9.7km/h 92% 0.03in /  0.76mm
09:29 70.8 °F /  21.6 °C 68.4 °F /  20.2 °C 29.97in /  1014.8hPa SW 12.0mph /  19.3km/h 12.0mph /  19.3km/h 92% 0.02in /  0.51mm
09:34 70.5 °F /  21.4 °C 68.1 °F /  20.1 °C 29.97in /  1014.8hPa SSW 8.0mph /  12.9km/h 12.0mph /  19.3km/h 92% 0.01in /  0.25mm
09:39 70.5 °F /  21.4 °C 68.1 °F /  20.1 °C 29.97in /  1014.8hPa SW 4.0mph /  6.4km/h 8.0mph /  12.9km/h 92% 0.01in /  0.25mm
09:44 70.6 °F /  21.4 °C 68.2 °F /  20.1 °C 29.97in /  1014.8hPa WSW 6.0mph /  9.7km/h 6.0mph /  9.7km/h 92% 0.01in /  0.25mm
09:49 70.8 °F /  21.6 °C 68.4 °F /  20.2 °C 29.97in /  1014.8hPa SW 2.0mph /  3.2km/h 7.0mph /  11.3km/h 92% 0.01in /  0.25mm
09:54 70.9 °F /  21.6 °C 68.5 °F /  20.3 °C 29.97in /  1014.8hPa SW 3.0mph /  4.8km/h 7.0mph /  11.3km/h 92% 0.01in /  0.25mm
09:59 71.1 °F /  21.7 °C 68.7 °F /  20.4 °C 29.97in /  1014.8hPa SW 3.0mph /  4.8km/h 6.0mph /  9.7km/h 92% 0.01in /  0.25mm
10:04 71.0 °F /  21.7 °C 68.6 °F /  20.3 °C 29.97in /  1014.8hPa SW 4.0mph /  6.4km/h 8.0mph /  12.9km/h 92% 0.01in /  0.25mm
10:09 71.0 °F /  21.7 °C 68.6 °F /  20.3 °C 29.97in /  1014.8hPa SW 4.0mph /  6.4km/h 9.0mph /  14.5km/h 92% 0.00in /  0mm
10:14 71.0 °F /  21.7 °C 68.6 °F /  20.3 °C 29.97in /  1014.8hPa SSW 3.0mph /  4.8km/h 8.0mph /  12.9km/h 92% 0.00in /  0mm
10:19 71.1 °F /  21.7 °C 68.7 °F /  20.4 °C 29.97in /  1014.8hPa SW 3.0mph /  4.8km/h 8.0mph /  12.9km/h 92% 0.01in /  0.25mm
10:24 71.1 °F /  21.7 °C 68.7 °F /  20.4 °C 29.97in /  1014.8hPa SW 3.0mph /  4.8km/h 7.0mph /  11.3km/h 92% 0.02in /  0.51mm
10:29 71.1 °F /  21.7 °C 68.7 °F /  20.4 °C 29.96in /  1014.4hPa WSW 2.0mph /  3.2km/h 5.0mph /  8km/h 92% 0.02in /  0.51mm
10:34 71.5 °F /  21.9 °C 69.1 °F /  20.6 °C 29.95in /  1014.1hPa SW 2.0mph /  3.2km/h 8.0mph /  12.9km/h 92% 0.02in /  0.51mm
10:39 71.9 °F /  22.2 °C 69.4 °F /  20.8 °C 29.95in /  1014.1hPa SSW 3.0mph /  4.8km/h 4.0mph /  6.4km/h 92% 0.02in /  0.51mm
10:44 72.8 °F /  22.7 °C 70.3 °F /  21.3 °C 29.95in /  1014.1hPa SSW 1.0mph /  1.6km/h 5.0mph /  8km/h 92% 0.02in /  0.51mm
10:49 73.9 °F /  23.3 °C 71.1 °F /  21.7 °C 29.95in /  1014.1hPa SSW 2.0mph /  3.2km/h 5.0mph /  8km/h 91% 0.02in /  0.51mm
10:54 74.4 °F /  23.6 °C 71.3 °F /  21.8 °C 29.95in /  1014.1hPa SSW 2.0mph /  3.2km/h 8.0mph /  12.9km/h 90% 0.02in /  0.51mm
10:59 74.1 °F /  23.4 °C 70.6 °F /  21.4 °C 29.95in /  1014.1hPa SW 3.0mph /  4.8km/h 8.0mph /  12.9km/h 89% 0.02in /  0.51mm
11:04 73.9 °F /  23.3 °C 70.1 °F /  21.2 °C 29.95in /  1014.1hPa SW 4.0mph /  6.4km/h 9.0mph /  14.5km/h 88% 0.02in /  0.51mm
11:09 73.5 °F /  23.1 °C 69.4 °F /  20.8 °C 29.95in /  1014.1hPa SW 5.0mph /  8km/h 9.0mph /  14.5km/h 87% 0.02in /  0.51mm
11:14 73.9 °F /  23.3 °C 69.8 °F /  21 °C 29.95in /  1014.1hPa SW 5.0mph /  8km/h 11.0mph /  17.7km/h 87% 0.01in /  0.25mm
11:19 74.2 °F /  23.4 °C 69.7 °F /  20.9 °C 29.95in /  1014.1hPa SW 5.0mph /  8km/h 11.0mph /  17.7km/h 86% 0.01in /  0.25mm
11:24 74.2 °F /  23.4 °C 69.4 °F /  20.8 °C 29.95in /  1014.1hPa SW 5.0mph /  8km/h 11.0mph /  17.7km/h 85% 0.00in /  0mm
11:29 73.9 °F /  23.3 °C 69.1 °F /  20.6 °C 29.96in /  1014.4hPa WNW 7.0mph /  11.3km/h 13.0mph /  20.9km/h 85% 0.00in /  0mm
11:34 74.3 °F /  23.5 °C 69.5 °F /  20.8 °C 29.96in /  1014.4hPa WSW 1.0mph /  1.6km/h 11.0mph /  17.7km/h 85% 0.00in /  0mm
11:39 74.7 °F /  23.7 °C 69.5 °F /  20.8 °C 29.96in /  1014.4hPa SW 10.0mph /  16.1km/h 10.0mph /  16.1km/h 84% 0.00in /  0mm
11:44 75.0 °F /  23.9 °C 69.8 °F /  21 °C 29.96in /  1014.4hPa West 5.0mph /  8km/h 10.0mph /  16.1km/h 84% 0.00in /  0mm
11:49 76.1 °F /  24.5 °C 70.2 °F /  21.2 °C 29.96in /  1014.4hPa WSW 5.0mph /  8km/h 10.0mph /  16.1km/h 82% 0.00in /  0mm
11:54 77.4 °F /  25.2 °C 71.1 °F /  21.7 °C 29.96in /  1014.4hPa WSW 5.0mph /  8km/h 9.0mph /  14.5km/h 81% 0.00in /  0mm
11:59 77.3 °F /  25.2 °C 70.3 °F /  21.3 °C 29.96in /  1014.4hPa WSW 5.0mph /  8km/h 12.0mph /  19.3km/h 79% 0.00in /  0mm
12:04 77.5 °F /  25.3 °C 70.1 °F /  21.2 °C 29.96in /  1014.4hPa SW 8.0mph /  12.9km/h 13.0mph /  20.9km/h 78% 0.00in /  0mm
12:09 77.1 °F /  25.1 °C 70.5 °F /  21.4 °C 29.96in /  1014.4hPa WSW 5.0mph /  8km/h 16.0mph /  25.7km/h 80% 0.00in /  0mm
12:14 76.8 °F /  24.9 °C 69.8 °F /  21 °C 29.97in /  1014.8hPa SW 3.0mph /  4.8km/h 13.0mph /  20.9km/h 79% 0.00in /  0mm
12:19 77.8 °F /  25.4 °C 71.1 °F /  21.7 °C 29.96in /  1014.4hPa WSW 6.0mph /  9.7km/h 13.0mph /  20.9km/h 80% 0.00in /  0mm
12:24 78.2 °F /  25.7 °C 71.2 °F /  21.8 °C 29.95in /  1014.1hPa WSW 5.0mph /  8km/h 11.0mph /  17.7km/h 79% 0.00in /  0mm
12:29 79.0 °F /  26.1 °C 71.9 °F /  22.2 °C 29.95in /  1014.1hPa SW 5.0mph /  8km/h 11.0mph /  17.7km/h 79% 0.00in /  0mm
12:34 78.5 °F /  25.8 °C 70.7 °F /  21.5 °C 29.95in /  1014.1hPa SW 6.0mph /  9.7km/h 14.0mph /  22.5km/h 77% 0.00in /  0mm
12:39 77.2 °F /  25.1 °C 70.2 °F /  21.2 °C 29.95in /  1014.1hPa WSW 7.0mph /  11.3km/h 12.0mph /  19.3km/h 79% 0.00in /  0mm
12:44 76.6 °F /  24.8 °C 70.0 °F /  21.1 °C 29.95in /  1014.1hPa West 2.0mph /  3.2km/h 14.0mph /  22.5km/h 80% 0.00in /  0mm
12:49 77.2 °F /  25.1 °C 70.5 °F /  21.4 °C 29.95in /  1014.1hPa SW 8.0mph /  12.9km/h 13.0mph /  20.9km/h 80% 0.00in /  0mm
12:54 77.3 °F /  25.2 °C 70.6 °F /  21.4 °C 29.95in /  1014.1hPa SW 6.0mph /  9.7km/h 13.0mph /  20.9km/h 80% 0.00in /  0mm
12:59 77.5 °F /  25.3 °C 70.8 °F /  21.6 °C 29.95in /  1014.1hPa WSW 6.0mph /  9.7km/h 12.0mph /  19.3km/h 80% 0.00in /  0mm
13:04 78.0 °F /  25.6 °C 71.0 °F /  21.7 °C 29.95in /  1014.1hPa WSW 5.0mph /  8km/h 9.0mph /  14.5km/h 79% 0.00in /  0mm
13:09 78.3 °F /  25.7 °C 71.2 °F /  21.8 °C 29.95in /  1014.1hPa WNW 6.0mph /  9.7km/h 8.0mph /  12.9km/h 79% 0.00in /  0mm
13:14 78.0 °F /  25.6 °C 71.0 °F /  21.7 °C 29.94in /  1013.8hPa SW 4.0mph /  6.4km/h 9.0mph /  14.5km/h 79% 0.00in /  0mm
13:19 77.2 °F /  25.1 °C 70.5 °F /  21.4 °C 29.94in /  1013.8hPa WSW 5.0mph /  8km/h 9.0mph /  14.5km/h 80% 0.00in /  0mm
13:24 76.5 °F /  24.7 °C 70.2 °F /  21.2 °C 29.94in /  1013.8hPa WSW 5.0mph /  8km/h 10.0mph /  16.1km/h 81% 0.00in /  0mm
13:29 76.2 °F /  24.6 °C 70.7 °F /  21.5 °C 29.95in /  1014.1hPa SW 6.0mph /  9.7km/h 10.0mph /  16.1km/h 83% 0.00in /  0mm
13:34 76.6 °F /  24.8 °C 70.7 °F /  21.5 °C 29.95in /  1014.1hPa WSW 5.0mph /  8km/h 10.0mph /  16.1km/h 82% 0.00in /  0mm
13:39 76.9 °F /  24.9 °C 70.6 °F /  21.4 °C 29.95in /  1014.1hPa WSW 6.0mph /  9.7km/h 7.0mph /  11.3km/h 81% 0.00in /  0mm
13:44 76.7 °F /  24.8 °C 70.4 °F /  21.3 °C 29.95in /  1014.1hPa WSW 6.0mph /  9.7km/h 12.0mph /  19.3km/h 81% 0.00in /  0mm
13:49 76.1 °F /  24.5 °C 70.2 °F /  21.2 °C 29.95in /  1014.1hPa WSW 9.0mph /  14.5km/h 13.0mph /  20.9km/h 82% 0.00in /  0mm
13:54 75.6 °F /  24.2 °C 70.1 °F /  21.2 °C 29.95in /  1014.1hPa WSW 6.0mph /  9.7km/h 13.0mph /  20.9km/h 83% 0.00in /  0mm
13:59 75.4 °F /  24.1 °C 70.2 °F /  21.2 °C 29.95in /  1014.1hPa SW 6.0mph /  9.7km/h 12.0mph /  19.3km/h 84% 0.00in /  0mm
14:04 75.7 °F /  24.3 °C 70.2 °F /  21.2 °C 29.94in /  1013.8hPa West 8.0mph /  12.9km/h 13.0mph /  20.9km/h 83% 0.00in /  0mm
14:09 75.6 °F /  24.2 °C 70.1 °F /  21.2 °C 29.94in /  1013.8hPa SW 6.0mph /  9.7km/h 14.0mph /  22.5km/h 83% 0.00in /  0mm
14:14 75.8 °F /  24.3 °C 70.3 °F /  21.3 °C 29.94in /  1013.8hPa WNW 6.0mph /  9.7km/h 11.0mph /  17.7km/h 83% 0.00in /  0mm
14:19 76.0 °F /  24.4 °C 70.5 °F /  21.4 °C 29.95in /  1014.1hPa WSW 9.0mph /  14.5km/h 13.0mph /  20.9km/h 83% 0.00in /  0mm
14:24 75.6 °F /  24.2 °C 70.1 °F /  21.2 °C 29.95in /  1014.1hPa WSW 5.0mph /  8km/h 13.0mph /  20.9km/h 83% 0.00in /  0mm
14:29 75.2 °F /  24 °C 69.7 °F /  20.9 °C 29.95in /  1014.1hPa WSW 7.0mph /  11.3km/h 13.0mph /  20.9km/h 83% 0.00in /  0mm
14:34 75.0 °F /  23.9 °C 69.5 °F /  20.8 °C 29.95in /  1014.1hPa SW 7.0mph /  11.3km/h 17.0mph /  27.4km/h 83% 0.00in /  0mm
14:39 74.8 °F /  23.8 °C 69.6 °F /  20.9 °C 29.96in /  1014.4hPa SW 8.0mph /  12.9km/h 17.0mph /  27.4km/h 84% 0.00in /  0mm
14:44 75.0 °F /  23.9 °C 69.5 °F /  20.8 °C 29.96in /  1014.4hPa WSW 7.0mph /  11.3km/h 14.0mph /  22.5km/h 83% 0.00in /  0mm
14:49 74.9 °F /  23.8 °C 69.4 °F /  20.8 °C 29.96in /  1014.4hPa WSW 6.0mph /  9.7km/h 15.0mph /  24.1km/h 83% 0.00in /  0mm
14:54 74.7 °F /  23.7 °C 69.2 °F /  20.7 °C 29.96in /  1014.4hPa SSW 7.0mph /  11.3km/h 15.0mph /  24.1km/h 83% 0.00in /  0mm
14:59 74.5 °F /  23.6 °C 69.3 °F /  20.7 °C 29.96in /  1014.4hPa SW 8.0mph /  12.9km/h 15.0mph /  24.1km/h 84% 0.00in /  0mm
15:04 74.3 °F /  23.5 °C 69.1 °F /  20.6 °C 29.96in /  1014.4hPa West 4.0mph /  6.4km/h 14.0mph /  22.5km/h 84% 0.00in /  0mm
15:09 74.3 °F /  23.5 °C 69.1 °F /  20.6 °C 29.96in /  1014.4hPa SSW 7.0mph /  11.3km/h 13.0mph /  20.9km/h 84% 0.00in /  0mm
15:14 74.5 °F /  23.6 °C 69.3 °F /  20.7 °C 29.96in /  1014.4hPa WSW 6.0mph /  9.7km/h 13.0mph /  20.9km/h 84% 0.00in /  0mm
15:19 74.7 °F /  23.7 °C 69.5 °F /  20.8 °C 29.95in /  1014.1hPa WSW 7.0mph /  11.3km/h 14.0mph /  22.5km/h 84% 0.00in /  0mm
15:24 75.1 °F /  23.9 °C 69.6 °F /  20.9 °C 29.96in /  1014.4hPa SW 6.0mph /  9.7km/h 13.0mph /  20.9km/h 83% 0.00in /  0mm
15:29 74.8 °F /  23.8 °C 69.3 °F /  20.7 °C 29.95in /  1014.1hPa WSW 6.0mph /  9.7km/h 17.0mph /  27.4km/h 83% 0.00in /  0mm
15:34 74.7 °F /  23.7 °C 69.5 °F /  20.8 °C 29.95in /  1014.1hPa WSW 6.0mph /  9.7km/h 17.0mph /  27.4km/h 84% 0.00in /  0mm
15:39 74.9 °F /  23.8 °C 69.7 °F /  20.9 °C 29.95in /  1014.1hPa WSW 6.0mph /  9.7km/h 11.0mph /  17.7km/h 84% 0.00in /  0mm
15:44 74.7 °F /  23.7 °C 69.2 °F /  20.7 °C 29.95in /  1014.1hPa WSW 6.0mph /  9.7km/h 16.0mph /  25.7km/h 83% 0.00in /  0mm
15:49 74.7 °F /  23.7 °C 69.5 °F /  20.8 °C 29.95in /  1014.1hPa WSW 6.0mph /  9.7km/h 16.0mph /  25.7km/h 84% 0.00in /  0mm
15:54 74.6 °F /  23.7 °C 69.1 °F /  20.6 °C 29.95in /  1014.1hPa SW 6.0mph /  9.7km/h 12.0mph /  19.3km/h 83% 0.00in /  0mm
15:59 74.5 °F /  23.6 °C 69.3 °F /  20.7 °C 29.95in /  1014.1hPa WSW 6.0mph /  9.7km/h 12.0mph /  19.3km/h 84% 0.00in /  0mm
16:04 74.5 °F /  23.6 °C 69.3 °F /  20.7 °C 29.94in /  1013.8hPa SW 10.0mph /  16.1km/h 12.0mph /  19.3km/h 84% 0.00in /  0mm
16:09 74.6 °F /  23.7 °C 69.4 °F /  20.8 °C 29.94in /  1013.8hPa SW 3.0mph /  4.8km/h 10.0mph /  16.1km/h 84% 0.00in /  0mm
16:14 74.8 °F /  23.8 °C 69.6 °F /  20.9 °C 29.94in /  1013.8hPa WSW 7.0mph /  11.3km/h 10.0mph /  16.1km/h 84% 0.00in /  0mm
16:19 75.0 °F /  23.9 °C 69.5 °F /  20.8 °C 29.94in /  1013.8hPa WSW 3.0mph /  4.8km/h 9.0mph /  14.5km/h 83% 0.00in /  0mm
16:24 75.1 °F /  23.9 °C 69.9 °F /  21.1 °C 29.93in /  1013.4hPa SSW 4.0mph /  6.4km/h 10.0mph /  16.1km/h 84% 0.00in /  0mm
16:29 75.5 °F /  24.2 °C 70.0 °F /  21.1 °C 29.94in /  1013.8hPa WSW 5.0mph /  8km/h 6.0mph /  9.7km/h 83% 0.00in /  0mm
16:34 75.3 °F /  24.1 °C 69.4 °F /  20.8 °C 29.94in /  1013.8hPa SSW 9.0mph /  14.5km/h 12.0mph /  19.3km/h 82% 0.00in /  0mm
16:39 75.1 °F /  23.9 °C 69.6 °F /  20.9 °C 29.94in /  1013.8hPa South 2.0mph /  3.2km/h 11.0mph /  17.7km/h 83% 0.00in /  0mm
16:44 74.9 °F /  23.8 °C 69.4 °F /  20.8 °C 29.94in /  1013.8hPa WSW 6.0mph /  9.7km/h 14.0mph /  22.5km/h 83% 0.00in /  0mm
16:49 74.8 °F /  23.8 °C 69.6 °F /  20.9 °C 29.94in /  1013.8hPa SW 5.0mph /  8km/h 10.0mph /  16.1km/h 84% 0.00in /  0mm
16:54 74.9 °F /  23.8 °C 69.7 °F /  20.9 °C 29.94in /  1013.8hPa SW 7.0mph /  11.3km/h 9.0mph /  14.5km/h 84% 0.00in /  0mm
16:59 75.1 °F /  23.9 °C 69.6 °F /  20.9 °C 29.93in /  1013.4hPa SSW 4.0mph /  6.4km/h 8.0mph /  12.9km/h 83% 0.00in /  0mm
17:04 75.3 °F /  24.1 °C 69.8 °F /  21 °C 29.93in /  1013.4hPa SW 4.0mph /  6.4km/h 10.0mph /  16.1km/h 83% 0.00in /  0mm
17:09 75.6 °F /  24.2 °C 70.1 °F /  21.2 °C 29.93in /  1013.4hPa SW 5.0mph /  8km/h 10.0mph /  16.1km/h 83% 0.00in /  0mm
17:14 75.7 °F /  24.3 °C 69.8 °F /  21 °C 29.94in /  1013.8hPa SW 5.0mph /  8km/h 10.0mph /  16.1km/h 82% 0.00in /  0mm
17:19 75.9 °F /  24.4 °C 69.6 °F /  20.9 °C 29.94in /  1013.8hPa West 6.0mph /  9.7km/h 14.0mph /  22.5km/h 81% 0.00in /  0mm
17:24 76.0 °F /  24.4 °C 69.4 °F /  20.8 °C 29.94in /  1013.8hPa SW 4.0mph /  6.4km/h 13.0mph /  20.9km/h 80% 0.00in /  0mm
17:29 76.1 °F /  24.5 °C 69.5 °F /  20.8 °C 29.94in /  1013.8hPa West 8.0mph /  12.9km/h 11.0mph /  17.7km/h 80% 0.00in /  0mm
17:34 76.0 °F /  24.4 °C 69.7 °F /  20.9 °C 29.94in /  1013.8hPa WSW 5.0mph /  8km/h 11.0mph /  17.7km/h 81% 0.00in /  0mm
17:39 76.0 °F /  24.4 °C 69.7 °F /  20.9 °C 29.94in /  1013.8hPa WSW 5.0mph /  8km/h 10.0mph /  16.1km/h 81% 0.00in /  0mm
17:44 76.1 °F /  24.5 °C 69.8 °F /  21 °C 29.94in /  1013.8hPa SW 5.0mph /  8km/h 12.0mph /  19.3km/h 81% 0.00in /  0mm
17:49 76.0 °F /  24.4 °C 69.7 °F /  20.9 °C 29.94in /  1013.8hPa SW 4.0mph /  6.4km/h 10.0mph /  16.1km/h 81% 0.00in /  0mm
17:54 75.8 °F /  24.3 °C 69.6 °F /  20.9 °C 29.94in /  1013.8hPa SW 11.0mph /  17.7km/h 16.0mph /  25.7km/h 81% 0.00in /  0mm
17:59 75.9 °F /  24.4 °C 70.0 °F /  21.1 °C 29.94in /  1013.8hPa WSW 3.0mph /  4.8km/h 12.0mph /  19.3km/h 82% 0.00in /  0mm
18:04 75.8 °F /  24.3 °C 69.9 °F /  21.1 °C 29.93in /  1013.4hPa South 5.0mph /  8km/h 11.0mph /  17.7km/h 82% 0.00in /  0mm
18:09 75.7 °F /  24.3 °C 69.8 °F /  21 °C 29.93in /  1013.4hPa SW 5.0mph /  8km/h 12.0mph /  19.3km/h 82% 0.00in /  0mm
18:14 75.8 °F /  24.3 °C 70.3 °F /  21.3 °C 29.93in /  1013.4hPa SW 5.0mph /  8km/h 12.0mph /  19.3km/h 83% 0.00in /  0mm
18:19 75.9 °F /  24.4 °C 70.4 °F /  21.3 °C 29.93in /  1013.4hPa SW 4.0mph /  6.4km/h 10.0mph /  16.1km/h 83% 0.00in /  0mm
18:24 75.7 °F /  24.3 °C 69.8 °F /  21 °C 29.93in /  1013.4hPa SSE 2.0mph /  3.2km/h 11.0mph /  17.7km/h 82% 0.00in /  0mm
18:29 75.7 °F /  24.3 °C 70.2 °F /  21.2 °C 29.93in /  1013.4hPa WSW 4.0mph /  6.4km/h 12.0mph /  19.3km/h 83% 0.00in /  0mm
18:34 75.6 °F /  24.2 °C 70.1 °F /  21.2 °C 29.92in /  1013.1hPa SW 4.0mph /  6.4km/h 10.0mph /  16.1km/h 83% 0.00in /  0mm
18:39 75.6 °F /  24.2 °C 70.1 °F /  21.2 °C 29.91in /  1012.8hPa SW 4.0mph /  6.4km/h 10.0mph /  16.1km/h 83% 0.00in /  0mm
18:44 75.5 °F /  24.2 °C 70.0 °F /  21.1 °C 29.92in /  1013.1hPa SSW 4.0mph /  6.4km/h 7.0mph /  11.3km/h 83% 0.00in /  0mm
18:49 75.6 °F /  24.2 °C 70.1 °F /  21.2 °C 29.93in /  1013.4hPa SW 2.0mph /  3.2km/h 9.0mph /  14.5km/h 83% 0.00in /  0mm
18:54 75.7 °F /  24.3 °C 70.2 °F /  21.2 °C 29.93in /  1013.4hPa SW 4.0mph /  6.4km/h 10.0mph /  16.1km/h 83% 0.00in /  0mm
18:59 75.7 °F /  24.3 °C 70.2 °F /  21.2 °C 29.93in /  1013.4hPa South 2.0mph /  3.2km/h 11.0mph /  17.7km/h 83% 0.00in /  0mm
19:04 75.9 °F /  24.4 °C 70.0 °F /  21.1 °C 29.92in /  1013.1hPa South 5.0mph /  8km/h 8.0mph /  12.9km/h 82% 0.00in /  0mm
19:09 76.0 °F /  24.4 °C 70.1 °F /  21.2 °C 29.92in /  1013.1hPa SSW 3.0mph /  4.8km/h 7.0mph /  11.3km/h 82% 0.00in /  0mm
19:14 76.0 °F /  24.4 °C 70.1 °F /  21.2 °C 29.92in /  1013.1hPa SW 4.0mph /  6.4km/h 9.0mph /  14.5km/h 82% 0.00in /  0mm
19:19 76.0 °F /  24.4 °C 70.1 °F /  21.2 °C 29.92in /  1013.1hPa SW 4.0mph /  6.4km/h 9.0mph /  14.5km/h 82% 0.00in /  0mm
19:24 76.0 °F /  24.4 °C 70.1 °F /  21.2 °C 29.92in /  1013.1hPa SW 4.0mph /  6.4km/h 9.0mph /  14.5km/h 82% 0.00in /  0mm
19:29 76.0 °F /  24.4 °C 70.1 °F /  21.2 °C 29.93in /  1013.4hPa SW 4.0mph /  6.4km/h 8.0mph /  12.9km/h 82% 0.00in /  0mm
19:34 76.0 °F /  24.4 °C 70.1 °F /  21.2 °C 29.93in /  1013.4hPa SW 5.0mph /  8km/h 7.0mph /  11.3km/h 82% 0.00in /  0mm
19:39 76.1 °F /  24.5 °C 70.2 °F /  21.2 °C 29.92in /  1013.1hPa SW 5.0mph /  8km/h 8.0mph /  12.9km/h 82% 0.00in /  0mm
19:44 76.0 °F /  24.4 °C 70.1 °F /  21.2 °C 29.92in /  1013.1hPa SSW 4.0mph /  6.4km/h 8.0mph /  12.9km/h 82% 0.00in /  0mm
19:49 76.0 °F /  24.4 °C 70.1 °F /  21.2 °C 29.92in /  1013.1hPa SW 5.0mph /  8km/h 7.0mph /  11.3km/h 82% 0.00in /  0mm
19:54 76.0 °F /  24.4 °C 70.1 °F /  21.2 °C 29.92in /  1013.1hPa WSW 7.0mph /  11.3km/h 7.0mph /  11.3km/h 82% 0.00in /  0mm
19:59 76.0 °F /  24.4 °C 70.1 °F /  21.2 °C 29.92in /  1013.1hPa West 3.0mph /  4.8km/h 7.0mph /  11.3km/h 82% 0.00in /  0mm
20:04 76.1 °F /  24.5 °C 70.2 °F /  21.2 °C 29.92in /  1013.1hPa SW 5.0mph /  8km/h 7.0mph /  11.3km/h 82% 0.00in /  0mm
20:09 76.1 °F /  24.5 °C 69.8 °F /  21 °C 29.92in /  1013.1hPa SW 3.0mph /  4.8km/h 8.0mph /  12.9km/h 81% 0.00in /  0mm
20:14 76.1 °F /  24.5 °C 69.8 °F /  21 °C 29.92in /  1013.1hPa SW 4.0mph /  6.4km/h 8.0mph /  12.9km/h 81% 0.00in /  0mm
20:19 76.2 °F /  24.6 °C 69.9 °F /  21.1 °C 29.92in /  1013.1hPa SW 4.0mph /  6.4km/h 9.0mph /  14.5km/h 81% 0.00in /  0mm
20:24 76.2 °F /  24.6 °C 69.9 °F /  21.1 °C 29.92in /  1013.1hPa SW 4.0mph /  6.4km/h 9.0mph /  14.5km/h 81% 0.00in /  0mm
20:29 76.4 °F /  24.7 °C 69.8 °F /  21 °C 29.92in /  1013.1hPa SW 4.0mph /  6.4km/h 10.0mph /  16.1km/h 80% 0.00in /  0mm
20:34 76.3 °F /  24.6 °C 69.7 °F /  20.9 °C 29.92in /  1013.1hPa SW 4.0mph /  6.4km/h 8.0mph /  12.9km/h 80% 0.00in /  0mm
20:39 76.3 °F /  24.6 °C 69.7 °F /  20.9 °C 29.92in /  1013.1hPa SW 3.0mph /  4.8km/h 8.0mph /  12.9km/h 80% 0.00in /  0mm
20:44 76.2 °F /  24.6 °C 69.6 °F /  20.9 °C 29.92in /  1013.1hPa SW 4.0mph /  6.4km/h 8.0mph /  12.9km/h 80% 0.00in /  0mm
20:49 76.2 °F /  24.6 °C 69.6 °F /  20.9 °C 29.92in /  1013.1hPa SW 4.0mph /  6.4km/h 8.0mph /  12.9km/h 80% 0.00in /  0mm
20:54 76.1 °F /  24.5 °C 69.5 °F /  20.8 °C 29.91in /  1012.8hPa Calm   5.0mph /  8km/h 80% 0.00in /  0mm
20:59 75.9 °F /  24.4 °C 69.3 °F /  20.7 °C 29.91in /  1012.8hPa SSW 2.0mph /  3.2km/h 5.0mph /  8km/h 80% 0.00in /  0mm
21:04 75.9 °F /  24.4 °C 69.6 °F /  20.9 °C 29.91in /  1012.8hPa SSW 2.0mph /  3.2km/h 3.0mph /  4.8km/h 81% 0.00in /  0mm
21:09 75.9 °F /  24.4 °C 69.6 °F /  20.9 °C 29.91in /  1012.8hPa SW 1.0mph /  1.6km/h 4.0mph /  6.4km/h 81% 0.00in /  0mm
21:14 75.9 °F /  24.4 °C 69.6 °F /  20.9 °C 29.91in /  1012.8hPa SSW 1.0mph /  1.6km/h 4.0mph /  6.4km/h 81% 0.00in /  0mm
21:19 75.9 °F /  24.4 °C 69.6 °F /  20.9 °C 29.91in /  1012.8hPa SW 1.0mph /  1.6km/h 2.0mph /  3.2km/h 81% 0.00in /  0mm
21:24 75.8 °F /  24.3 °C 69.6 °F /  20.9 °C 29.91in /  1012.8hPa Calm   1.0mph /  1.6km/h 81% 0.00in /  0mm
21:29 75.8 °F /  24.3 °C 69.6 °F /  20.9 °C 29.92in /  1013.1hPa Calm     81% 0.00in /  0mm
21:34 75.8 °F /  24.3 °C 69.6 °F /  20.9 °C 29.91in /  1012.8hPa Calm     81% 0.00in /  0mm
21:39 75.8 °F /  24.3 °C 69.6 °F /  20.9 °C 29.91in /  1012.8hPa Calm     81% 0.00in /  0mm
21:44 75.7 °F /  24.3 °C 69.5 °F /  20.8 °C 29.91in /  1012.8hPa Calm     81% 0.00in /  0mm
21:49 75.7 °F /  24.3 °C 69.5 °F /  20.8 °C 29.91in /  1012.8hPa Calm     81% 0.00in /  0mm
21:54 75.7 °F /  24.3 °C 69.5 °F /  20.8 °C 29.91in /  1012.8hPa SSE 2.0mph /  3.2km/h 2.0mph /  3.2km/h 81% 0.00in /  0mm
21:59 75.8 °F /  24.3 °C 69.6 °F /  20.9 °C 29.91in /  1012.8hPa SSE 3.0mph /  4.8km/h 4.0mph /  6.4km/h 81% 0.00in /  0mm
22:04 76.0 °F /  24.4 °C 69.7 °F /  20.9 °C 29.91in /  1012.8hPa SSW 4.0mph /  6.4km/h 5.0mph /  8km/h 81% 0.00in /  0mm
22:09 76.0 °F /  24.4 °C 70.1 °F /  21.2 °C 29.90in /  1012.4hPa Calm   6.0mph /  9.7km/h 82% 0.01in /  0.25mm
22:14 75.7 °F /  24.3 °C 70.5 °F /  21.4 °C 29.90in /  1012.4hPa South 3.0mph /  4.8km/h 5.0mph /  8km/h 84% 0.01in /  0.25mm
22:19 75.3 °F /  24.1 °C 70.1 °F /  21.2 °C 29.90in /  1012.4hPa South 2.0mph /  3.2km/h 5.0mph /  8km/h 84% 0.01in /  0.25mm
22:24 75.0 °F /  23.9 °C 69.8 °F /  21 °C 29.90in /  1012.4hPa South 2.0mph /  3.2km/h 5.0mph /  8km/h 84% 0.01in /  0.25mm
22:29 74.9 °F /  23.8 °C 69.7 °F /  20.9 °C 29.90in /  1012.4hPa SSW 2.0mph /  3.2km/h 5.0mph /  8km/h 84% 0.01in /  0.25mm
22:34 74.7 °F /  23.7 °C 69.5 °F /  20.8 °C 29.90in /  1012.4hPa South 1.0mph /  1.6km/h 4.0mph /  6.4km/h 84% 0.01in /  0.25mm
22:39 74.6 °F /  23.7 °C 69.1 °F /  20.6 °C 29.90in /  1012.4hPa Calm   4.0mph /  6.4km/h 83% 0.01in /  0.25mm
22:44 74.5 °F /  23.6 °C 69.3 °F /  20.7 °C 29.89in /  1012.1hPa South 2.0mph /  3.2km/h 3.0mph /  4.8km/h 84% 0.01in /  0.25mm
22:49 74.7 °F /  23.7 °C 69.2 °F /  20.7 °C 29.89in /  1012.1hPa South 1.0mph /  1.6km/h 3.0mph /  4.8km/h 83% 0.01in /  0.25mm
22:54 74.8 °F /  23.8 °C 69.3 °F /  20.7 °C 29.90in /  1012.4hPa SSW 2.0mph /  3.2km/h 7.0mph /  11.3km/h 83% 0.03in /  0.76mm
22:59 74.3 °F /  23.5 °C 69.1 °F /  20.6 °C 29.89in /  1012.1hPa SW 2.0mph /  3.2km/h 3.0mph /  4.8km/h 84% 0.11in /  2.79mm
23:04 73.7 °F /  23.2 °C 69.2 °F /  20.7 °C 29.87in /  1011.4hPa SSE 1.0mph /  1.6km/h 3.0mph /  4.8km/h 86% 0.17in /  4.32mm
23:09 73.2 °F /  22.9 °C 69.4 °F /  20.8 °C 29.87in /  1011.4hPa SSW 4.0mph /  6.4km/h 6.0mph /  9.7km/h 88% 0.18in /  4.57mm
23:14 73.1 °F /  22.8 °C 69.3 °F /  20.7 °C 29.88in /  1011.7hPa NW 2.0mph /  3.2km/h 6.0mph /  9.7km/h 88% 0.19in /  4.83mm
23:19 73.0 °F /  22.8 °C 69.6 °F /  20.9 °C 29.89in /  1012.1hPa NW 3.0mph /  4.8km/h 8.0mph /  12.9km/h 89% 0.20in /  5.08mm
23:24 72.9 °F /  22.7 °C 69.5 °F /  20.8 °C 29.88in /  1011.7hPa NNW 3.0mph /  4.8km/h 8.0mph /  12.9km/h 89% 0.20in /  5.08mm
23:29 73.0 °F /  22.8 °C 69.9 °F /  21.1 °C 29.88in /  1011.7hPa West 2.0mph /  3.2km/h 4.0mph /  6.4km/h 90% 0.20in /  5.08mm
23:34 73.2 °F /  22.9 °C 70.1 °F /  21.2 °C 29.89in /  1012.1hPa WSW 5.0mph /  8km/h 8.0mph /  12.9km/h 90% 0.20in /  5.08mm
23:39 73.8 °F /  23.2 °C 70.7 °F /  21.5 °C 29.89in /  1012.1hPa West 3.0mph /  4.8km/h 12.0mph /  19.3km/h 90% 0.20in /  5.08mm
23:44 73.8 °F /  23.2 °C 70.4 °F /  21.3 °C 29.90in /  1012.4hPa West 1.0mph /  1.6km/h 6.0mph /  9.7km/h 89% 0.20in /  5.08mm
23:49 74.0 °F /  23.3 °C 70.9 °F /  21.6 °C 29.90in /  1012.4hPa West 3.0mph /  4.8km/h 6.0mph /  9.7km/h 90% 0.20in /  5.08mm
23:54 74.4 °F /  23.6 °C 70.9 °F /  21.6 °C 29.90in /  1012.4hPa West 3.0mph /  4.8km/h 7.0mph /  11.3km/h 89% 0.18in /  4.57mm
23:59 74.6 °F /  23.7 °C 71.1 °F /  21.7 °C 29.90in /  1012.4hPa WSW 4.0mph /  6.4km/h 8.0mph /  12.9km/h 89% 0.10in /  2.54mm
Buffalo, New York, USA
Compliments of Weather Underground - 2.5 mb